createdAt,value
2019-06-07T00:00:29.843Z,17.80
2019-06-07T00:02:41.610Z,17.80
2019-06-07T00:05:12.715Z,17.70
2019-06-07T00:07:40.632Z,17.70
2019-06-07T00:10:12.114Z,17.60
2019-06-07T00:12:39.687Z,17.60
2019-06-07T00:15:11.656Z,17.50
2019-06-07T00:17:38.729Z,17.50
2019-06-07T00:20:09.354Z,17.40
2019-06-07T00:22:37.899Z,17.40
2019-06-07T00:25:10.153Z,17.40
2019-06-07T00:27:37.075Z,17.40
2019-06-07T00:30:29.610Z,17.40
2019-06-07T00:32:36.833Z,17.40
2019-06-07T00:35:05.826Z,17.40
2019-06-07T00:37:34.525Z,17.30
2019-06-07T00:40:13.929Z,17.20
2019-06-07T00:42:33.427Z,17.20
2019-06-07T00:45:02.090Z,17.10
2019-06-07T00:47:30.767Z,17.00
2019-06-07T00:49:59.419Z,17.00
2019-06-07T00:53:14.096Z,16.90
2019-06-07T00:54:58.495Z,16.90
2019-06-07T00:57:27.214Z,16.90
2019-06-07T00:59:55.890Z,16.90
2019-06-07T01:02:29.051Z,16.90
2019-06-07T01:04:54.972Z,16.90
2019-06-07T01:07:24.443Z,16.90
2019-06-07T01:09:53.295Z,16.90
2019-06-07T01:12:23.908Z,16.90
2019-06-07T01:14:52.329Z,17.00
2019-06-07T01:17:39.848Z,17.00
2019-06-07T01:19:55.477Z,17.00
2019-06-07T01:22:29.079Z,17.10
2019-06-07T01:24:54.456Z,17.00
2019-06-07T01:27:25.434Z,17.00
2019-06-07T01:29:53.403Z,17.10
2019-06-07T01:32:24.619Z,17.10
2019-06-07T01:34:52.369Z,17.20
2019-06-07T01:37:25.041Z,17.20
2019-06-07T01:39:51.341Z,17.30
2019-06-07T01:42:21.981Z,17.30
2019-06-07T01:44:50.285Z,17.30
2019-06-07T01:47:21.177Z,17.20
2019-06-07T01:49:49.249Z,17.20
2019-06-07T01:52:19.608Z,17.20
2019-06-07T01:54:57.499Z,17.20
2019-06-07T01:57:36.523Z,17.20
2019-06-07T01:59:48.771Z,17.10
2019-06-07T02:02:17.811Z,17.10
2019-06-07T02:04:46.460Z,17.10
2019-06-07T02:07:15.111Z,17.10
2019-06-07T02:09:43.783Z,17.10
2019-06-07T02:12:25.635Z,17.00
2019-06-07T02:14:42.710Z,17.00
2019-06-07T02:17:11.371Z,16.90
2019-06-07T02:19:40.022Z,16.90
2019-06-07T02:22:08.681Z,16.80
2019-06-07T02:24:37.352Z,16.90
2019-06-07T02:27:05.994Z,16.80
2019-06-07T02:29:34.683Z,16.70
2019-06-07T02:32:03.468Z,16.70
2019-06-07T02:34:38.603Z,16.80
2019-06-07T02:37:02.477Z,16.80
2019-06-07T02:39:37.649Z,16.90
2019-06-07T02:42:01.507Z,16.90
2019-06-07T02:44:33.042Z,16.90
2019-06-07T02:47:00.457Z,16.90
2019-06-07T02:49:36.252Z,16.80
2019-06-07T02:51:59.418Z,16.80
2019-06-07T02:54:30.868Z,16.80
2019-06-07T02:56:59.340Z,16.70
2019-06-07T02:59:57.609Z,16.70
2019-06-07T03:01:58.473Z,16.80
2019-06-07T03:04:29.532Z,16.80
2019-06-07T03:06:58.837Z,16.80
2019-06-07T03:09:30.725Z,16.80
2019-06-07T03:11:58.961Z,16.80
2019-06-07T03:14:28.639Z,16.70
2019-06-07T03:17:07.718Z,16.80
2019-06-07T03:19:40.225Z,16.80
2019-06-07T03:22:08.853Z,16.80
2019-06-07T03:24:41.718Z,16.80
2019-06-07T03:27:34.311Z,16.80
2019-06-07T03:29:41.192Z,16.80
2019-06-07T03:32:08.568Z,16.90
2019-06-07T03:34:41.301Z,16.90
2019-06-07T03:37:07.519Z,16.90
2019-06-07T03:39:37.127Z,16.90
2019-06-07T03:42:08.521Z,16.90
2019-06-07T03:44:40.649Z,16.90
2019-06-07T03:47:06.993Z,16.80
2019-06-07T03:49:39.403Z,16.80
2019-06-07T03:52:05.931Z,16.80
2019-06-07T03:54:37.019Z,16.80
2019-06-07T03:57:04.983Z,16.80
2019-06-07T03:59:37.402Z,16.80
2019-06-07T04:02:03.948Z,16.80
2019-06-07T04:04:34.660Z,16.90
2019-06-07T04:07:02.929Z,16.90
2019-06-07T04:09:35.071Z,16.90
2019-06-07T04:12:01.898Z,17.00
2019-06-07T04:14:30.920Z,17.00
2019-06-07T04:17:00.841Z,17.00
2019-06-07T04:19:31.455Z,17.00
2019-06-07T04:21:59.782Z,17.10
2019-06-07T04:24:28.670Z,17.20
2019-06-07T04:26:57.460Z,17.20
2019-06-07T04:29:33.326Z,17.30
2019-06-07T04:31:56.374Z,17.40
2019-06-07T04:34:25.057Z,17.50
2019-06-07T04:36:58.981Z,17.60
2019-06-07T04:39:24.954Z,17.60
2019-06-07T04:41:55.452Z,17.70
2019-06-07T04:44:25.504Z,17.80
2019-06-07T04:46:54.709Z,17.90
2019-06-07T04:49:23.630Z,18.00
2019-06-07T04:51:52.447Z,18.00
2019-06-07T04:54:21.099Z,18.00
2019-06-07T04:56:49.730Z,18.00
2019-06-07T05:00:00.372Z,18.00
2019-06-07T05:01:48.698Z,18.10
2019-06-07T05:04:17.312Z,18.10
2019-06-07T05:06:45.998Z,18.20
2019-06-07T05:09:14.638Z,18.30
2019-06-07T05:11:45.119Z,18.30
2019-06-07T05:14:13.579Z,18.40
2019-06-07T05:16:44.244Z,18.50
2019-06-07T05:19:12.499Z,18.50
2019-06-07T05:21:59.929Z,18.50
2019-06-07T05:24:11.452Z,18.60
2019-06-07T05:26:42.524Z,18.60
2019-06-07T05:29:10.524Z,18.70
2019-06-07T05:31:42.379Z,18.70
2019-06-07T05:34:09.442Z,18.70
2019-06-07T05:36:39.908Z,18.70
2019-06-07T05:39:08.500Z,18.90
2019-06-07T05:41:40.724Z,19.00
2019-06-07T05:44:12.703Z,19.00
2019-06-07T05:46:40.687Z,19.00
2019-06-07T05:49:08.101Z,19.20
2019-06-07T05:51:38.075Z,19.30
2019-06-07T05:54:07.051Z,19.30
2019-06-07T05:56:37.898Z,19.30
2019-06-07T05:59:05.951Z,19.40
2019-06-07T06:01:45.118Z,19.40
2019-06-07T06:04:04.917Z,19.40
2019-06-07T06:06:33.894Z,19.40
2019-06-07T06:09:13.432Z,19.40
2019-06-07T06:11:48.132Z,19.40
2019-06-07T06:14:08.178Z,19.30
2019-06-07T06:16:34.683Z,19.30
2019-06-07T06:19:03.301Z,19.40
2019-06-07T06:21:31.939Z,19.50
2019-06-07T06:24:00.537Z,19.70
2019-06-07T06:26:29.232Z,19.80
2019-06-07T06:28:57.804Z,19.70
2019-06-07T06:31:26.446Z,19.60
2019-06-07T06:33:55.077Z,19.70
2019-06-07T06:36:23.839Z,19.80
2019-06-07T06:38:52.428Z,19.90
2019-06-07T06:41:21.212Z,20.00
2019-06-07T06:43:52.442Z,20.00
2019-06-07T06:46:37.563Z,19.90
2019-06-07T06:48:54.880Z,20.00
2019-06-07T06:51:20.806Z,20.10
2019-06-07T06:53:52.441Z,20.00
2019-06-07T06:56:19.745Z,20.10
2019-06-07T06:59:27.333Z,20.10
2019-06-07T07:01:18.650Z,20.00
2019-06-07T07:04:09.631Z,20.10
2019-06-07T07:06:25.787Z,20.10
2019-06-07T07:08:52.795Z,20.20
2019-06-07T07:11:23.323Z,20.20
2019-06-07T07:13:56.318Z,20.30
2019-06-07T07:16:20.247Z,20.50
2019-06-07T07:18:51.731Z,20.70
2019-06-07T07:21:19.185Z,20.90
2019-06-07T07:24:15.160Z,21.10
2019-06-07T07:26:18.706Z,21.30
2019-06-07T07:28:51.802Z,21.40
2019-06-07T07:31:17.593Z,21.40
2019-06-07T07:36:36.698Z,21.40
2019-06-07T07:38:55.047Z,21.50
2019-06-07T07:41:17.020Z,21.50
2019-06-07T07:43:51.920Z,21.60
2019-06-07T07:46:31.302Z,21.50
2019-06-07T07:48:46.214Z,21.40
2019-06-07T07:51:14.871Z,21.40
2019-06-07T07:53:52.187Z,21.20
2019-06-07T07:56:13.801Z,21.10
2019-06-07T07:58:42.400Z,21.10
2019-06-07T08:01:11.474Z,20.80
2019-06-07T08:03:40.136Z,20.80
2019-06-07T08:06:08.795Z,20.70
2019-06-07T08:08:37.457Z,20.80
2019-06-07T08:11:06.113Z,21.00
2019-06-07T08:13:34.753Z,21.20
2019-06-07T08:16:10.744Z,21.30
2019-06-07T08:18:33.699Z,21.40
2019-06-07T08:21:21.921Z,21.40
2019-06-07T08:23:32.666Z,21.30
2019-06-07T08:26:01.445Z,21.30
2019-06-07T08:28:30.057Z,21.40
2019-06-07T08:31:06.382Z,21.50
2019-06-07T08:33:28.965Z,21.60
2019-06-07T08:36:10.454Z,21.70
2019-06-07T08:38:46.587Z,21.90
2019-06-07T08:41:05.925Z,22.00
2019-06-07T08:43:28.467Z,22.00
2019-06-07T08:46:02.163Z,22.10
2019-06-07T08:48:29.935Z,22.30
2019-06-07T08:51:04.397Z,22.40
2019-06-07T08:53:27.954Z,22.40
2019-06-07T08:56:00.854Z,22.40
2019-06-07T08:58:26.846Z,22.30
2019-06-07T09:00:58.477Z,22.50
2019-06-07T09:03:25.755Z,22.80
2019-06-07T09:05:56.316Z,22.90
2019-06-07T09:08:30.386Z,23.00
2019-06-07T09:10:56.588Z,23.00
2019-06-07T09:13:25.197Z,22.80
2019-06-07T09:15:56.059Z,22.80
2019-06-07T09:18:40.820Z,22.90
2019-06-07T09:20:55.675Z,23.00
2019-06-07T09:23:24.621Z,23.30
2019-06-07T09:26:01.363Z,23.50
2019-06-07T09:28:23.756Z,23.40
2019-06-07T09:30:52.374Z,23.40
2019-06-07T09:33:21.006Z,23.60
2019-06-07T09:35:49.685Z,23.80
2019-06-07T09:38:25.814Z,24.00
2019-06-07T09:40:48.548Z,24.30
2019-06-07T09:44:00.716Z,24.60
2019-06-07T09:45:47.464Z,24.80
2019-06-07T09:48:47.583Z,24.80
2019-06-07T09:50:46.349Z,24.90
2019-06-07T09:53:22.598Z,24.80
2019-06-07T09:55:45.275Z,24.60
2019-06-07T10:00:44.192Z,24.30
2019-06-07T10:03:21.320Z,24.50
2019-06-07T10:05:43.167Z,24.60
2019-06-07T10:08:54.745Z,24.80
2019-06-07T10:10:43.094Z,25.30
2019-06-07T10:13:12.096Z,25.70
2019-06-07T10:15:40.761Z,25.90
2019-06-07T10:18:09.432Z,25.90
2019-06-07T10:20:38.077Z,25.60
2019-06-07T10:23:08.071Z,25.40
2019-06-07T10:25:36.790Z,25.20
2019-06-07T10:28:06.071Z,25.40
2019-06-07T10:30:34.882Z,25.80
2019-06-07T10:33:04.832Z,26.10
2019-06-07T10:35:33.787Z,26.50
2019-06-07T10:38:02.573Z,26.70
2019-06-07T10:40:31.255Z,26.90
2019-06-07T10:43:01.209Z,26.60
2019-06-07T10:45:30.197Z,26.40
2019-06-07T10:47:58.833Z,26.70
2019-06-07T10:50:27.560Z,26.80
2019-06-07T10:52:56.224Z,26.90
2019-06-07T10:55:24.866Z,27.10
2019-06-07T10:57:53.474Z,27.40
2019-06-07T11:00:22.317Z,27.70
2019-06-07T11:02:54.290Z,27.60
2019-06-07T11:05:21.596Z,27.60
2019-06-07T11:07:50.223Z,27.60
2019-06-07T11:10:20.185Z,27.50
2019-06-07T11:12:49.072Z,27.70
2019-06-07T11:15:17.703Z,27.70
2019-06-07T11:17:46.333Z,28.00
2019-06-07T11:20:15.087Z,28.10
2019-06-07T11:22:43.754Z,28.10
2019-06-07T11:25:12.900Z,27.90
2019-06-07T11:27:41.657Z,27.70
2019-06-07T11:30:10.657Z,27.60
2019-06-07T11:32:39.463Z,27.60
2019-06-07T11:35:08.604Z,27.60
2019-06-07T11:37:37.242Z,27.30
2019-06-07T11:40:07.837Z,27.30
2019-06-07T11:42:36.320Z,27.30
2019-06-07T11:45:05.709Z,27.50
2019-06-07T11:47:34.482Z,27.50
2019-06-07T11:50:03.081Z,27.60
2019-06-07T11:52:31.832Z,27.80
2019-06-07T11:55:01.144Z,28.00
2019-06-07T11:57:29.827Z,28.30
2019-06-07T11:59:58.419Z,28.00
2019-06-07T12:02:27.037Z,27.70
2019-06-07T12:04:55.718Z,27.50
2019-06-07T12:07:24.334Z,27.40
2019-06-07T12:09:56.438Z,27.50
2019-06-07T12:12:23.302Z,27.50
2019-06-07T12:14:51.982Z,27.30
2019-06-07T12:17:20.656Z,27.00
2019-06-07T12:19:49.331Z,26.80
2019-06-07T12:22:20.065Z,26.90
2019-06-07T12:24:48.925Z,26.80
2019-06-07T12:27:18.658Z,26.80
2019-06-07T12:29:47.527Z,26.90
2019-06-07T12:32:17.513Z,27.10
2019-06-07T12:34:46.793Z,27.20
2019-06-07T12:37:19.314Z,27.10
2019-06-07T12:39:46.207Z,27.30
2019-06-07T12:42:15.029Z,27.40
2019-06-07T12:44:44.071Z,27.50
2019-06-07T12:47:12.800Z,27.50
2019-06-07T12:49:41.382Z,27.40
2019-06-07T12:52:13.697Z,27.40
2019-06-07T12:54:41.237Z,27.30
2019-06-07T12:57:10.101Z,27.30
2019-06-07T12:59:40.078Z,27.50
2019-06-07T13:02:08.740Z,27.50
2019-06-07T13:04:37.422Z,27.50
2019-06-07T13:07:06.173Z,27.50
2019-06-07T13:09:36.166Z,27.50
2019-06-07T13:12:06.333Z,27.30
2019-06-07T13:14:35.120Z,27.30
2019-06-07T13:17:03.948Z,27.30
2019-06-07T13:19:32.613Z,27.30
2019-06-07T13:22:01.231Z,27.40
2019-06-07T13:24:30.136Z,27.50
2019-06-07T13:26:58.912Z,27.60
2019-06-07T13:29:30.083Z,27.70
2019-06-07T13:31:57.855Z,27.60
2019-06-07T13:34:26.485Z,27.60
2019-06-07T17:03:59.263Z,27.50
2019-06-07T17:06:27.890Z,27.50
2019-06-07T17:08:56.556Z,27.50
2019-06-07T17:11:25.164Z,27.40
2019-06-07T17:13:53.849Z,27.40
2019-06-07T17:16:22.481Z,27.30
2019-06-07T17:18:51.201Z,27.40
2019-06-07T17:21:19.914Z,27.40
2019-06-07T17:23:49.448Z,27.40
2019-06-07T17:26:18.228Z,27.30
2019-06-07T17:28:47.734Z,27.20
2019-06-07T17:31:16.603Z,27.20
2019-06-07T17:33:46.009Z,27.10
2019-06-07T17:36:15.562Z,27.10
2019-06-07T17:38:48.612Z,27.00
2019-06-07T17:41:19.143Z,27.00
2019-06-07T17:43:57.775Z,26.90
2019-06-07T17:46:20.716Z,26.90
2019-06-07T17:48:51.723Z,26.80
2019-06-07T17:51:21.958Z,26.80
2019-06-07T17:53:52.166Z,26.80
2019-06-07T17:56:21.666Z,26.80
2019-06-07T17:58:51.023Z,26.70
2019-06-07T18:01:20.774Z,26.60
2019-06-07T18:03:51.267Z,26.60
2019-06-07T18:06:21.758Z,26.60
2019-06-07T18:08:53.543Z,26.60
2019-06-07T18:11:23.998Z,26.60
2019-06-07T18:14:09.652Z,26.70
2019-06-07T18:16:26.305Z,26.50
2019-06-07T18:18:56.786Z,26.50
2019-06-07T18:21:27.164Z,26.40
2019-06-07T18:23:58.617Z,26.30
2019-06-07T18:26:29.052Z,26.20
2019-06-07T18:28:59.584Z,26.10
2019-06-07T18:31:30.111Z,26.10
2019-06-07T18:34:00.553Z,26.10
2019-06-07T18:36:33.412Z,26.00
2019-06-07T18:39:04.112Z,25.90
2019-06-07T18:41:34.712Z,25.90
2019-06-07T18:44:12.967Z,25.90
2019-06-07T18:46:37.252Z,25.80
2019-06-07T18:49:08.531Z,25.80
2019-06-07T18:51:39.192Z,25.60
2019-06-07T18:54:10.422Z,25.40
2019-06-07T18:56:40.819Z,25.20
2019-06-07T18:59:11.359Z,25.10
2019-06-07T19:01:41.915Z,25.10
2019-06-07T19:04:12.522Z,25.00
2019-06-07T19:06:43.175Z,24.90
2019-06-07T19:09:13.845Z,24.70
2019-06-07T19:11:44.834Z,24.70
2019-06-07T19:14:15.480Z,24.60
2019-06-07T19:16:45.989Z,24.50
2019-06-07T19:19:16.682Z,24.40
2019-06-07T19:21:49.899Z,24.40
2019-06-07T19:24:19.946Z,24.40
2019-06-07T19:26:52.440Z,24.30
2019-06-07T19:29:23.223Z,24.20
2019-06-07T19:31:54.868Z,24.10
2019-06-07T19:34:25.472Z,24.10
2019-06-07T19:36:56.158Z,23.90
2019-06-07T19:39:26.744Z,23.90
2019-06-07T19:41:58.049Z,23.80
2019-06-07T19:44:28.674Z,23.80
2019-06-07T19:47:00.489Z,23.70
2019-06-07T19:49:31.257Z,23.60
2019-06-07T19:52:03.262Z,23.60
2019-06-07T19:54:33.829Z,23.50
2019-06-07T19:57:04.432Z,23.40
2019-06-07T19:59:35.000Z,23.30
2019-06-07T20:02:05.922Z,23.20
2019-06-07T20:04:36.530Z,23.10
2019-06-07T20:07:10.151Z,23.00
2019-06-07T20:09:40.723Z,23.00
2019-06-07T20:12:11.459Z,22.90
2019-06-07T20:14:42.037Z,22.80
2019-06-07T20:17:12.754Z,22.80
2019-06-07T20:19:43.334Z,22.70
2019-06-07T20:22:13.968Z,22.60
2019-06-07T20:24:44.668Z,22.60
2019-06-07T20:27:15.245Z,22.50
2019-06-07T20:29:45.924Z,22.40
2019-06-07T20:32:16.572Z,22.40
2019-06-07T20:34:47.244Z,22.30
2019-06-07T20:37:17.872Z,22.30
2019-06-07T20:39:50.600Z,22.20
2019-06-07T20:42:21.759Z,22.20
2019-06-07T20:44:53.621Z,22.10
2019-06-07T20:47:24.185Z,22.10
2019-06-07T20:49:55.505Z,22.00
2019-06-07T20:52:26.048Z,22.00
2019-06-07T20:54:58.456Z,22.00
2019-06-07T20:57:28.748Z,21.90
2019-06-07T21:00:00.853Z,21.90
2019-06-07T21:02:31.633Z,21.80
2019-06-07T21:05:03.321Z,21.80
2019-06-07T21:07:34.438Z,21.70
2019-06-07T21:10:05.746Z,21.70
2019-06-07T21:12:36.252Z,21.60
2019-06-07T21:15:10.754Z,21.60
2019-06-07T21:17:39.337Z,21.50
2019-06-07T21:20:14.369Z,21.60
2019-06-07T21:22:43.949Z,21.50
2019-06-07T21:25:14.366Z,21.60
2019-06-07T21:27:45.632Z,21.60
2019-06-07T21:30:16.302Z,21.60
2019-06-07T21:32:47.258Z,21.60
2019-06-07T21:35:17.792Z,21.60
2019-06-07T21:37:47.898Z,21.60
2019-06-07T21:40:18.353Z,21.60
2019-06-07T21:42:48.533Z,21.60
2019-06-07T21:45:18.954Z,21.60
2019-06-07T21:47:49.627Z,21.60
2019-06-07T21:50:19.448Z,21.60
2019-06-07T21:52:49.794Z,21.70
2019-06-07T21:55:19.092Z,21.70
2019-06-07T21:57:48.244Z,21.70
2019-06-07T22:00:23.554Z,21.70
2019-06-07T22:02:53.430Z,21.60
2019-06-07T22:05:22.973Z,21.60
2019-06-07T22:07:52.657Z,21.60
2019-06-07T22:10:22.320Z,21.60
2019-06-07T22:12:51.364Z,21.60
2019-06-07T22:15:33.157Z,21.70
2019-06-07T22:17:51.146Z,21.70
2019-06-07T22:20:19.860Z,21.70
2019-06-07T22:22:48.491Z,21.70
2019-06-07T22:25:17.137Z,21.70
2019-06-07T22:27:45.768Z,21.70
2019-06-07T22:30:14.604Z,21.70
2019-06-07T22:32:43.245Z,21.60
2019-06-07T22:35:12.994Z,21.60
2019-06-07T22:37:41.599Z,21.60
2019-06-07T22:40:10.694Z,21.60
2019-06-07T22:42:39.499Z,21.70
2019-06-07T22:45:08.282Z,21.70
2019-06-07T22:47:37.007Z,21.50
2019-06-07T22:50:05.861Z,21.30
2019-06-07T22:52:34.502Z,21.10
2019-06-07T22:55:03.140Z,20.90
2019-06-07T22:57:50.747Z,20.50
2019-06-07T23:00:20.803Z,20.10
2019-06-07T23:02:49.629Z,19.70
2019-06-07T23:05:18.958Z,19.50
2019-06-07T23:07:47.592Z,19.40
2019-06-07T23:10:17.406Z,19.40
2019-06-07T23:12:46.066Z,19.20
2019-06-07T23:15:15.405Z,19.10
2019-06-07T23:17:44.153Z,19.00
2019-06-07T23:20:13.730Z,18.70
2019-06-07T23:22:42.410Z,18.60
2019-06-07T23:25:12.239Z,18.50
2019-06-07T23:27:40.980Z,18.40
2019-06-07T23:30:10.676Z,18.40
2019-06-07T23:32:39.380Z,18.40
2019-06-07T23:35:08.284Z,18.40
2019-06-07T23:37:36.865Z,18.30
2019-06-07T23:40:05.640Z,18.30
2019-06-07T23:42:34.301Z,18.20
2019-06-07T23:45:02.903Z,18.20
2019-06-07T23:47:31.531Z,18.10
2019-06-07T23:50:00.131Z,18.10
2019-06-07T23:52:28.808Z,18.10
2019-06-07T23:54:57.410Z,18.10
2019-06-07T23:57:26.057Z,18.10
2019-06-07T23:59:54.677Z,18.10
